Home   Weather   Netherlands   Abcoude   Past weeks
Flag for Netherlands

Past Weather in Abcoude, Netherlands — Yesterday and Last 2 Weeks

Currently: 72 °F. Passing clouds. (Weather station: Amsterdam Schiphol Airport, Netherlands). See more current weather

Past Weather in Abcoude — Graph

°F

Abcoude Temperature Yesterday

Maximum temperature yesterday: 75 °F (at 1:55 pm)
Minimum temperature yesterday: 55 °F (at 3:55 am)
Average temperature yesterday: 65 °F

High & Low Weather Summary for the Past Weeks

 TemperatureHumidityPressure
High81 °F (May 14, 2:25 pm)100% (May 5, 12:55 am)30.39 "Hg (May 5, 12:55 am)
Low45 °F (May 9, 4:25 am)39% (May 12, 3:55 pm)29.59 "Hg (May 16, 9:25 am)
Average60 °F79%29.94 "Hg
* Reported May 4 3:55 pm — May 19 3:55 pm, Abcoude. Weather by CustomWeather, © 2024

Note: Actual official high and low records may vary slightly from our data, if they occured in-between our weather recording intervals... More about our weather records

Abcoude Weather History for the Previous 24 Hours

Scroll right to see more
 ConditionsComfort  
Time TempWeatherWind HumidityBarometerVisibility
3:55 pm
Sun, May 19
72 °FPassing clouds.16 mph50%29.83 "HgN/A
2:55 pm70 °FPassing clouds.10 mph53%29.86 "HgN/A
1:55 pm72 °FScattered showers. Passing clouds.12 mph53%29.86 "HgN/A
12:55 pm70 °FPassing clouds.10 mph60%29.86 "HgN/A
12:25 pm70 °FPassing clouds.9 mph57%29.86 "HgN/A
11:55 am70 °FPassing clouds.7 mph60%29.86 "HgN/A
11:25 am70 °FPassing clouds.8 mph60%29.86 "HgN/A
10:55 am68 °FPassing clouds.9 mph60%29.86 "HgN/A
10:25 am66 °FPassing clouds.8 mph64%29.86 "HgN/A
9:55 am66 °FPassing clouds.8 mph68%29.86 "HgN/A
8:55 am63 °FPassing clouds.8 mph73%29.86 "HgN/A
8:25 am63 °FPassing clouds.6 mph77%29.86 "HgN/A
7:55 am61 °FPassing clouds.3 mph88%29.86 "HgN/A
7:25 am57 °FPassing clouds.3 mph100%29.86 "HgN/A
6:55 am55 °FSunny.2 mph100%29.86 "Hg10 mi
6:25 am54 °FFog.2 mph100%29.83 "Hg4 mi
5:55 am54 °FCool.3 mph100%29.83 "Hg2 mi
5:25 am54 °FCool.6 mph100%29.83 "Hg1 mi
4:55 am55 °FFog.6 mph94%29.83 "Hg1 mi
4:25 am55 °FFog.9 mph100%29.83 "Hg0 mi
3:55 am54 °FCool.6 mph100%29.83 "Hg1 mi
3:25 am55 °FCool.6 mph100%29.86 "Hg1 mi
2:55 am55 °FCool.7 mph100%29.86 "Hg1 mi
2:25 am57 °FFog.5 mph94%29.86 "Hg2 mi
1:55 am57 °FFog.3 mph94%29.86 "Hg2 mi
1:25 am57 °FFog.5 mph94%29.86 "Hg2 mi
12:55 am57 °FFog.7 mph100%29.86 "Hg3 mi
12:25 am57 °FFog.7 mph100%29.86 "Hg3 mi
11:55 pm
Sat, May 18
57 °FClear.8 mph100%29.86 "Hg4 mi
11:25 pm59 °FClear.7 mph94%29.86 "Hg4 mi
10:55 pm59 °FClear.9 mph94%29.86 "Hg6 mi
10:25 pm61 °FClear.9 mph88%29.86 "Hg10 mi
9:55 pm61 °FClear.7 mph83%29.86 "Hg10 mi
9:25 pm63 °FPassing clouds.7 mph73%29.83 "HgN/A
8:55 pm64 °FPassing clouds.9 mph68%29.83 "HgN/A
8:25 pm68 °FPassing clouds.8 mph60%29.83 "HgN/A
7:55 pm70 °FPassing clouds.8 mph57%29.83 "HgN/A
6:55 pm70 °FPassing clouds.12 mph60%29.83 "HgN/A
6:25 pm70 °FPassing clouds.12 mph64%29.83 "HgN/A
5:55 pm70 °FPassing clouds.12 mph64%29.83 "HgN/A
5:25 pm70 °FPassing clouds.12 mph69%29.83 "HgN/A
Weather by CustomWeather, © 2024

See weather overview